ADDS METAR Data INFO
IDs: Format: Raw Decoded Include TAF

Data at: 1631 UTC 25 Apr 2018

KINJ 251615Z AUTO 34017G28KT 10SM SCT065 OVC075 16/11 A3015 RMK AO2 T01610106
KINJ 251555Z AUTO 33018G25KT 10SM SCT022 SCT038 OVC075 17/11 A3014 RMK AO2 T01660109
KINJ 251535Z AUTO 33021G28KT 10SM SCT022 BKN038 OVC055 18/12 A3014 RMK AO2 T01770122
KINJ 251515Z AUTO 32022G29KT 10SM BKN038 OVC050 18/13 A3013 RMK AO2 T01810131
KINJ 251455Z AUTO 33014KT 10SM OVC050 19/13 A3011 RMK AO2 T01940133
KINJ 251435Z AUTO 34014G20KT 10SM OVC050 20/14 A3010 RMK AO2 T01980139
KINJ 251415Z AUTO 34012G16KT 10SM SCT050 BKN075 21/14 A3008 RMK AO2 T02080144
KINJ 251355Z AUTO 00000KT 10SM BKN075 22/16 A3006 RMK AO2 T02160160
KINJ 251335Z AUTO 00000KT 10SM SCT075 21/16 A3006 RMK AO2 T02110160
KINJ 251315Z AUTO 00000KT 10SM CLR 20/16 A3006 RMK AO2 LTG DSNT NW T01960156
KINJ 251255Z AUTO 00000KT 10SM CLR 19/15 A3006 RMK AO2 T01860149
KINJ 251235Z AUTO 14004KT 10SM CLR 18/13 A3004 RMK AO2 LTG DSNT NW T01800134
KINJ 251215Z AUTO 00000KT 10SM CLR 17/13 A3005 RMK AO2 LTG DSNT NW T01740125
KINJ 251155Z AUTO 00000KT 10SM CLR 16/14 A3005 RMK AO2 LTG DSNT NW T01580138 10207 20156
KINJ 251135Z AUTO 00000KT 10SM CLR 17/13 A3005 RMK AO2 T01730128
KINJ 251115Z AUTO 12004KT 10SM CLR 17/12 A3004 RMK AO2 T01740122
KINJ 251055Z AUTO 00000KT 10SM CLR 17/13 A3005 RMK AO2 T01670128
KINJ 251035Z AUTO 14003KT 10SM CLR 17/13 A3004 RMK AO2 T01700128
KINJ 251015Z AUTO 18003KT 10SM CLR 18/12 A3005 RMK AO2 T01800120
KINJ 250955Z AUTO 12003KT 10SM SCT060 19/11 A3004 RMK AO2 LTG DSNT N T01920110
KINJ 250935Z AUTO 00000KT 10SM SCT060 19/13 A3004 RMK AO2 T01870125
KINJ 250915Z AUTO 12004KT 10SM BKN060 19/12 A3004 RMK AO2 T01890124
KINJ 250855Z AUTO 12004KT 10SM OVC060 20/12 A3005 RMK AO2 T01980115
KINJ 250835Z AUTO 09006KT 10SM SCT060 20/12 A3005 RMK AO2 T01980115
KINJ 250815Z AUTO 06007KT 10SM CLR 20/11 A3004 RMK AO2 T02030110
KINJ 250755Z AUTO 11008KT 10SM CLR 20/11 A3003 RMK AO2 T02040106
KINJ 250735Z AUTO 10008KT 10SM CLR 20/12 A3005 RMK AO2 T01990121
KINJ 250715Z AUTO 05009KT 10SM SCT120 20/12 A3005 RMK AO2 T02040121
KINJ 250655Z AUTO 09010KT 10SM CLR 21/12 A3004 RMK AO2 T02070121
KINJ 250635Z AUTO 13009KT 10SM BKN070 19/14 A3006 RMK AO2 LTG DSNT N T01910141
KINJ 250615Z AUTO 30003KT 10SM BKN070 OVC100 20/13 A3010 RMK AO2 T02020134
KINJ 250555Z AUTO 09005KT 10SM SCT070 BKN100 20/13 A3009 RMK AO2 T02020131 10266 20200 402810103
KINJ 250535Z AUTO 08006KT 10SM CLR 20/14 A3009 RMK AO2 T02020135
KINJ 250515Z AUTO 08005KT 10SM CLR 21/14 A3008 RMK AO2 LTG DSNT W AND NW T02050135
KINJ 250455Z AUTO 09007KT 10SM CLR 21/14 A3007 RMK AO2 LTG DSNT W T02070138
KINJ 250435Z AUTO 07008KT 10SM CLR 20/14 A3007 RMK AO2 LTG DSNT W T02040140
KINJ 250415Z AUTO 09006KT 10SM CLR 20/15 A3007 RMK AO2 T02020146
KINJ 250355Z AUTO 09005KT 10SM CLR 20/15 A3007 RMK AO2 T02020148
KINJ 250335Z AUTO 09005KT 10SM CLR 20/15 A3006 RMK AO2 T02030150
KINJ 250315Z AUTO 09006KT 10SM CLR 21/15 A3004 RMK AO2 T02050149
KINJ 250255Z AUTO 08007KT 10SM CLR 21/15 A3003 RMK AO2 T02070148
KINJ 250235Z AUTO 08006KT 10SM CLR 21/15 A3002 RMK AO2 T02100150
KINJ 250215Z AUTO 08007KT 10SM CLR 21/15 A3001 RMK AO2 T02140147
KINJ 250155Z AUTO 09006KT 10SM CLR 21/15 A3001 RMK AO2 T02120150
KINJ 250135Z AUTO 09006KT 10SM CLR 22/15 A3000 RMK AO2 T02200149
KINJ 250115Z AUTO 10006KT 10SM CLR 22/15 A3000 RMK AO2 T02200153
KINJ 250055Z AUTO 08006KT 10SM CLR 24/15 A2999 RMK AO2 T02350151
KINJ 250035Z AUTO 07005KT 10SM CLR 25/15 A2999 RMK AO2 T02470151
KINJ 250015Z AUTO 10005KT 10SM CLR 26/15 A2999 RMK AO2 T02580149
KINJ 242355Z AUTO 10006KT 10SM CLR 27/14 A2999 RMK AO2 T02680144 10281 20251
KINJ 242335Z AUTO 08003KT 10SM CLR 27/15 A2999 RMK AO2 T02730154
KINJ 242315Z AUTO 00000KT 10SM CLR 28/14 A3000 RMK AO2 T02780137
KINJ 242255Z AUTO 00000KT 10SM CLR 28/13 A3000 RMK AO2 T02800133
KINJ 242235Z AUTO 00000KT 10SM CLR 28/14 A3000 RMK AO2 T02800140
KINJ 242215Z AUTO 09004KT 10SM CLR 28/14 A3000 RMK AO2 T02800137
KINJ 242155Z AUTO 15005KT 10SM CLR 28/14 A3000 RMK AO2 T02790142
KINJ 242135Z AUTO 00000KT 10SM CLR 28/13 A3000 RMK AO2 T02760130
KINJ 242115Z AUTO 13004KT 10SM CLR 28/14 A3001 RMK AO2 T02770142
KINJ 242055Z AUTO 05003KT 10SM CLR 28/13 A3002 RMK AO2 T02760132
KINJ 242035Z AUTO 00000KT 10SM CLR 27/13 A3002 RMK AO2 T02730130
KINJ 242015Z AUTO 00000KT 10SM CLR 27/14 A3004 RMK AO2 T02720137
KINJ 241955Z AUTO 00000KT 10SM CLR 27/13 A3004 RMK AO2 T02720133
KINJ 241935Z AUTO 10005KT 10SM CLR 27/14 A3005 RMK AO2 T02730140
KINJ 241915Z AUTO 00000KT 10SM CLR 26/13 A3006 RMK AO2 T02640125
KINJ 241855Z AUTO 08006KT 10SM CLR 27/14 A3007 RMK AO2 T02650139
KINJ 241835Z AUTO 07004KT 10SM CLR 26/13 A3007 RMK AO2 T02620134
KINJ 241815Z AUTO 04004KT 7SM CLR 26/14 A3008 RMK AO2 T02600137
KINJ 241755Z AUTO 00000KT 7SM CLR 26/14 A3009 RMK AO2 T02560137 10256 20108
KINJ 241735Z AUTO 00000KT 10SM CLR 25/14 A3010 RMK AO2 T02500137
KINJ 241715Z AUTO 02003KT 10SM CLR 25/14 A3011 RMK AO2 T02470135
KINJ 241655Z AUTO 00000KT 10SM CLR 25/13 A3011 RMK AO2 T02490132
KINJ 241635Z AUTO 00000KT 10SM CLR 24/13 A3012 RMK AO2 T02360130
KINJ 241615Z AUTO 02003KT 10SM CLR 23/14 A3012 RMK AO2 T02320136
KINJ 241555Z AUTO 00000KT 10SM CLR 22/14 A3013 RMK AO2 T02220135
KINJ 241535Z AUTO 00000KT 10SM CLR 21/14 A3013 RMK AO2 T02140144
KINJ 241515Z AUTO 21003KT 10SM CLR 21/15 A3013 RMK AO2 T02070146
KINJ 241455Z AUTO 00000KT 10SM CLR 20/14 A3013 RMK AO2 T02010144
KINJ 241435Z AUTO 24004KT 10SM CLR 20/14 A3012 RMK AO2 T01950140
KINJ 241415Z AUTO 20004KT 10SM CLR 19/15 A3012 RMK AO2 T01890145
KINJ 241355Z AUTO 00000KT 10SM CLR 18/14 A3011 RMK AO2 T01800141
KINJ 241335Z AUTO 00000KT 10SM CLR 17/14 A3011 RMK AO2 T01730142
KINJ 241315Z AUTO 00000KT 10SM CLR 16/15 A3010 RMK AO2 T01610151
KINJ 241255Z AUTO 00000KT 10SM CLR 14/14 A3009 RMK AO2 T01380138
KINJ 241235Z AUTO 00000KT 10SM CLR 12/12 A3008 RMK AO2 T01160116
KINJ 241215Z AUTO 00000KT 10SM CLR 11/11 A3007 RMK AO2 T01130113
KINJ 241155Z AUTO 00000KT 10SM CLR 11/11 A3006 RMK AO2 T01130108 10161 20103
KINJ 241135Z AUTO 00000KT 10SM CLR 11/11 A3006 RMK AO2 T01060106
KINJ 241115Z AUTO 00000KT 10SM CLR 12/11 A3006 RMK AO2 T01150113
KINJ 241055Z AUTO 00000KT 10SM CLR 11/11 A3006 RMK AO2 T01080107
KINJ 241035Z AUTO 00000KT 10SM CLR 12/12 A3006 RMK AO2 T01170117
KINJ 241015Z AUTO 00000KT 10SM CLR 12/12 A3006 RMK AO2 T01230123
KINJ 240955Z AUTO 00000KT 10SM CLR 13/13 A3006 RMK AO2 T01260125
KINJ 240935Z AUTO 00000KT 10SM CLR 12/12 A3006 RMK AO2 T01150115
KINJ 240915Z AUTO 00000KT 10SM CLR 13/12 A3005 RMK AO2 T01250122
KINJ 240855Z AUTO 00000KT 10SM CLR 12/12 A3005 RMK AO2 T01240122
KINJ 240835Z AUTO 17004KT 10SM CLR 12/12 A3005 RMK AO2 T01200117
KINJ 240815Z AUTO 18003KT 10SM CLR 12/12 A3004 RMK AO2 T01220118
KINJ 240755Z AUTO 19008KT 10SM CLR 14/12 A3003 RMK AO2 T01410124
KINJ 240735Z AUTO 07004KT 10SM CLR 14/13 A3002 RMK AO2 T01410125
KINJ 240715Z AUTO 00000KT 10SM CLR 14/13 A3003 RMK AO2 T01430125
KINJ 240635Z AUTO 00000KT 10SM CLR 15/13 A3004 RMK AO2 T01450126
KINJ 240615Z AUTO 00000KT 10SM CLR 16/13 A3004 RMK AO2 T01600130
KINJ 240555Z AUTO 00000KT 10SM CLR 15/13 A3004 RMK AO2 T01460130 10232 20141 402430070
KINJ 240535Z AUTO 00000KT 10SM CLR 15/13 A3004 RMK AO2 T01490130
KINJ 240515Z AUTO 09004KT 10SM CLR 15/13 A3004 RMK AO2 T01490129
KINJ 240455Z AUTO 09007KT 10SM CLR 16/13 A3004 RMK AO2 T01630130
KINJ 240435Z AUTO 09006KT 10SM CLR 16/13 A3005 RMK AO2 T01630126